^^

Nearby METAR Reports

 

KBJC - Broomfield/Jeffc, Colorado, USA
Distance from station: ESE 4mi, 6km
Updated: 03/28/2020 9:47pm
Partly cloudy
Partly cloudy
 Wind from W
Wind: W 22 mph , 35 km/h, Gust: 29 mph , 46 km/h
Temperature: 39°F , 4°C
Wind Chill: 29°F , -2°C
Dew Point: 14°F , -10°C
Humidity: 36%
Barometer: 1016.3 hPa
Clouds: Partly cloudy
Visibility: 30 miles , 48 km
Cloud details: Few Clouds 8000 ft
Partly cloudy 14000 ft
2020/03/29 03:47 KBJC 290347Z 27019G25KT 30SM FEW080 SCT140 04/M10 A3001 RMK LAST
KBDU - Boulder Muni, Colorado, USA
Distance from station: NNW 8mi, 13km
Updated: 03/28/2020 9:30pm
Clear
Clear
 Wind from WSW
Wind: WSW 6 mph , 9 km/h
Temperature: 41°F , 5°C
Wind Chill: 37°F , 3°C
Dew Point: 14°F , -10°C
Humidity: 33%
Barometer: 1015.6 hPa
Clouds: Clear
Visibility: 10 miles , 16 km
2020/03/29 03:30 KBDU 290330Z AUTO 25005KT 10SM CLR 05/M10 A2999 RMK AO2
 
KEIK - Erie Muni, Colorado, USA
Distance from station: NE 8mi, 14km
Updated: 03/28/2020 9:41pm
Clear
Clear
 Wind from SW
Wind: SW 5 mph , 7 km/h
Temperature: 36°F , 2°C
Wind Chill: 32°F , 0°C
Dew Point: 19°F , -7°C
Humidity: 52%
Barometer: 1017.6 hPa
Clouds: Clear
Visibility: 10 miles , 16 km
2020/03/29 03:41 KEIK 290341Z AUTO 23004KT 10SM CLR 02/M07 A3005 RMK AO2 T00241068
KLMO - Longmont/Vbrand, Colorado, USA
Distance from station: N 17mi, 27km
Updated: 03/28/2020 9:35pm
Clear
Clear
 Wind from W
Wind: W 8 mph , 13 km/h
Temperature: 45°F , 7°C
Wind Chill: 41°F , 5°C
Dew Point: 16°F , -9°C
Humidity: 31%
Barometer: 1016.3 hPa
Clouds: Clear
Visibility: 10 miles , 16 km
2020/03/29 03:35 KLMO 290335Z AUTO 26007KT 10SM CLR 07/M09 A3001 RMK AO2 T00681094
 
KBKF - Buckley Angb/Den, Colorado, USA
Distance from station: ESE 26mi, 42km
Updated: 03/28/2020 8:58pm
Few Clouds
Few Clouds
 Wind from WSW
Wind: WSW 3 mph , 6 km/h
Temperature: 39°F , 4°C
Dew Point: 12°F , -11°C
Humidity: 33%
Barometer: 1015.9 hPa
Clouds: Few Clouds
Visibility: 10 miles , 16 km
Cloud details: Few Clouds 10000 ft
2020/03/29 02:58 KBKF 290258Z 24003KT 10SM FEW100 04/M11 A3000 RMK AO2A SLP165 T00371115 52022
KDEN - Denver (dia), Colorado, USA
Distance from station: E 27mi, 44km
Updated: 03/28/2020 8:53pm
Few Clouds
Few Clouds
 Wind from W
Wind: W 12 mph , 19 km/h
Temperature: 37°F , 3°C
Wind Chill: 29°F , -2°C
Dew Point: 18°F , -8°C
Humidity: 45%
Barometer: 1015.2 hPa
Clouds: Few Clouds
Visibility: 10 miles , 16 km
Cloud details: Few Clouds 8500 ft
Few Clouds 14000 ft
2020/03/29 02:53 KDEN 290253Z 27010KT 10SM FEW085 FEW140 03/M08 A2998 RMK AO2 SLP154 T00331078 51022 $
 
KAPA - Denver/Arapahoe, Colorado, USA
Distance from station: SE 30mi, 48km
Updated: 03/28/2020 8:53pm
Few Clouds
Few Clouds
 Wind from NW
Wind: NW 6 mph , 9 km/h
Temperature: 39°F , 4°C
Wind Chill: 35°F , 2°C
Dew Point: 12°F , -11°C
Humidity: 33%
Barometer: 1015.9 hPa
Clouds: Few Clouds
Visibility: 10 miles , 16 km
Cloud details: Few Clouds 11000 ft
2020/03/29 02:53 KAPA 290253Z 31005KT 10SM FEW110 04/M11 A3000 RMK AO2 SLP171 T00391111 51021
K0CO - Berthoud Pass, Colorado, USA
Distance from station: WSW 33mi, 54km
Updated: 03/28/2020 4:24pm
NOT Current
Overcast
Overcast
 Wind from NW
Wind: NW 40 mph , 65 km/h, Gust: 48 mph , 78 km/h
Temperature: 7°F , -14°C
Wind Chill: -19°F , -28°C
Dew Point: -4°F , -20°C
Humidity: 61%
Barometer: 1011.2 hPa
Clouds: Overcast
Visibility: 3/4 mile , 1.2 km
Cloud details: Mostly cloudy 400 ft
Overcast 1000 ft
2020/03/28 22:24 K0CO 282224Z AUTO 31035G42KT 3/4SM BKN004 OVC010 M14/M20 A2986 RMK AO2 PWINO
 
KFTG - Denver F. Range, Colorado, USA
Distance from station: ESE 34mi, 54km
Updated: 01/29/2020 9:55pm
NOT Current
Overcast
Overcast
 Wind from W
Wind: W 7 mph , 11 km/h
Temperature: 30°F , -1°C
Wind Chill: 23°F , -5°C
Dew Point: 28°F , -2°C
Humidity: 93%
Barometer: 1017.9 hPa
Clouds: Overcast
Visibility: 10 miles , 16 km
Cloud details: Partly cloudy 1300 ft
Mostly cloudy 2300 ft
Overcast 6000 ft
2020/01/30 04:55 KFTG 300455Z AUTO 26006KT 10SM SCT013 BKN023 OVC060 M01/M02 A3006 RMK AO2 T10111023
KFNL - Ft Collins/Loveland, Colorado, USA
Distance from station: N 37mi, 59km
Updated: 03/28/2020 8:56pm
Clear
Clear
 Wind from WSW
Wind: WSW 7 mph , 11 km/h
Temperature: 39°F , 4°C
Wind Chill: 34°F , 1°C
Dew Point: 18°F , -8°C
Humidity: 42%
Barometer: 1015.2 hPa
Clouds: Clear
Visibility: 10 miles , 16 km
2020/03/29 02:56 KFNL 290256Z 24006KT 10SM CLR 04/M08 A2998 RMK AO2 SLP152 T00391083 53021
 
KCYS - Cheyenne, Wyoming, USA
Distance from station: NNE 95mi, 153km
Updated: 03/28/2020 8:53pm
Overcast
Overcast
 Wind from WNW
Wind: WNW 10 mph , 17 km/h
Temperature: 36°F , 2°C
Wind Chill: 29°F , -2°C
Dew Point: 19°F , -7°C
Humidity: 52%
Barometer: 1014.9 hPa
Clouds: Overcast
Visibility: 10 miles , 16 km
Cloud details: Few Clouds 7000 ft
Partly cloudy 8000 ft
Overcast 10000 ft
2020/03/29 02:53 KCYS 290253Z 29009KT 10SM FEW070 SCT080 OVC100 02/M07 A2997 RMK AO2 SLP164 T00221072 53020 $
KCPR - Casper, Wyoming, USA
Distance from station: NNW 272mi, 438km
Updated: 03/28/2020 8:53pm
Few Clouds
Few Clouds
 Wind from NW
Wind: NW 7 mph , 11 km/h
Temperature: 28°F , -2°C
Wind Chill: 21°F , -6°C
Dew Point: 18°F , -8°C
Humidity: 64%
Barometer: 1013.5 hPa
Clouds: Few Clouds
Visibility: 10 miles , 16 km
Cloud details: Few Clouds 8500 ft
2020/03/29 02:53 KCPR 290253Z 32006KT 10SM FEW085 M02/M08 A2993 RMK AO2 SLPNO T10171078 53015 $
 
KGNB - Granby/Grand Co, Colorado, USA
Distance from station: WNW 42mi, 67km
Updated: 03/28/2020 9:30pm
Overcast
Overcast
 Wind from WSW
Wind: WSW 7 mph , 11 km/h
Temperature: 25°F , -4°C
Wind Chill: 17°F , -8°C
Dew Point: 18°F , -8°C
Humidity: 74%
Barometer: 1018.6 hPa
Clouds: Overcast
Visibility: 10 miles , 16 km
Cloud details: Partly cloudy 3800 ft
Partly cloudy 4600 ft
Overcast 5000 ft
2020/03/29 03:30 KGNB 290330Z AUTO 24006KT 210V270 10SM SCT038 SCT046 OVC050 M04/M08 A3008 RMK AO2 T10361081
KGXY - Greeley/Weld, Colorado, USA
Distance from station: NE 44mi, 71km
Updated: 03/28/2020 8:56pm
Clear
Clear
 Wind from WNW
Wind: WNW 9 mph , 15 km/h
Temperature: 39°F , 4°C
Wind Chill: 33°F , 1°C
Dew Point: 19°F , -7°C
Humidity: 45%
Barometer: 1015.6 hPa
Clouds: Clear
Visibility: 10 miles , 16 km
2020/03/29 02:56 KGXY 290256Z AUTO 30008KT 10SM CLR 04/M07 A2999 RMK AO2 SLP175 T00441067 53023
 
KMNH - Monument/Elbert, Colorado, USA
Distance from station: SSE 56mi, 90km
Updated: 03/28/2020 9:30pm
Clear
Clear
 Wind from SW
Wind: SW 3 mph , 6 km/h
Temperature: 30°F , -1°C
Dew Point: 12°F , -11°C
Humidity: 47%
Barometer: 1016.9 hPa
Clouds: Clear
Visibility: 10 miles , 16 km
2020/03/29 03:30 KMNH 290330Z AUTO 22003KT 10SM CLR M01/M11 A3003 RMK AO2